Time;durP1;ratioP1;P1;durP2;ratioP2;P2;SDS_P1;SDS_P2;PMS_P1;PMS_P2;Temp;Humidity;BMP_temperature;BMP_pressure;BME280_temperature;BME280_humidity;BME280_pressure;Samples;Min_cycle;Max_cycle;Signal;HPM_P1;HPM_P2
2022/10/24 00:02:23;;;;;;;;;;;;;;;10.95;100.00;98743.03;5023943;28;19947;-58
2022/10/24 00:04:48;;;;;;;;;;;;;;;10.96;100.00;98728.47;5024567;28;19943;-60
2022/10/24 00:07:14;;;;;;;;;;;;;;;10.93;100.00;98731.97;5024943;28;20863;-59
2022/10/24 00:09:40;;;;;;;;;;;;;;;10.91;100.00;98732.84;5020817;28;19933;-62
2022/10/24 00:12:06;;;;;;;;;;;;;;;10.95;100.00;98727.63;5018785;28;20438;-63
2022/10/24 00:14:32;;;;;;;;;;;;;;;10.94;100.00;98728.53;5024829;28;19935;-64
2022/10/24 00:16:58;;;;;;;;;;;;;;;10.88;100.00;98726.06;5022510;28;19962;-63
2022/10/24 00:19:23;;;;;;;;;;;;;;;10.90;100.00;98726.91;5023521;28;19940;-63
2022/10/24 00:21:48;;;;;;;;;;;;;;;10.89;100.00;98730.34;5022301;28;19929;-63
2022/10/24 00:24:14;;;;;;;;;;;;;;;10.90;100.00;98734.59;5022793;28;20355;-63
2022/10/24 00:26:40;;;;;;;;;;;;;;;10.89;100.00;98727.78;5024150;28;19929;-63
2022/10/24 00:29:06;;;;;;;;;;;;;;;10.91;100.00;98733.69;5038996;28;19976;-63
2022/10/24 00:31:31;;;;;;;;;;;;;;;10.89;100.00;98729.47;5022792;28;20329;-63
2022/10/24 00:33:58;;;;;;;;;;;;;;;10.92;100.00;98720.00;5018889;28;19925;-63
2022/10/24 00:36:24;;;;;;;;;;;;;;;10.91;100.00;98720.03;5019087;28;20519;-63
2022/10/24 00:38:50;;;;;;;;;;;;;;;10.97;100.00;98715.63;5022328;28;20395;-63
2022/10/24 00:41:17;;;;;;;;;;;;;;;10.94;100.00;98715.72;5019715;28;20445;-65
2022/10/24 00:43:43;;;;;;;;;;;;;;;10.92;100.00;98716.59;5022895;28;19925;-63
2022/10/24 00:46:08;;;;;;;;;;;;;;;10.85;100.00;98708.19;5023368;28;19932;-63
2022/10/24 00:48:39;;;;;;;;;;;;;;;10.90;100.00;98703.81;5024000;28;20009;-63
2022/10/24 00:51:06;;;;;;;;;;;;;;;10.88;100.00;98702.97;5023633;28;20437;-64
2022/10/24 00:53:34;;;;;;;;;;;;;;;10.85;100.00;98702.19;5026203;28;19943;-62
2022/10/24 00:56:01;;;;;;;;;;;;;;;10.90;100.00;98700.41;5024645;28;19991;-64
2022/10/24 00:58:28;;;;;;;;;;;;;;;10.88;100.00;98704.69;5024197;28;19962;-63
2022/10/24 01:00:54;;;;;;;;;;;;;;;10.99;100.00;98707.88;5024514;28;20424;-63
2022/10/24 01:03:20;;;;;;;;;;;;;;;10.95;100.00;98706.25;5024818;28;19978;-63
2022/10/24 01:06:04;;;;;;;;;;;;;;;10.89;100.00;98706.41;5022370;28;20157;-63
2022/10/24 01:08:35;;;;;;;;;;;;;;;10.91;100.00;98689.25;5022478;28;19940;-62
2022/10/24 01:11:07;;;;;;;;;;;;;;;10.89;100.00;98694.41;5023543;28;20418;-64
2022/10/24 01:13:51;;;;;;;;;;;;;;;10.84;100.00;98688.53;5023802;28;20058;-64
2022/10/24 01:16:22;;;;;;;;;;;;;;;10.85;100.00;98694.50;5020536;28;19932;-63
2022/10/24 01:19:00;;;;;;;;;;;;;;;10.86;100.00;98697.03;5023231;28;20040;-64
2022/10/24 01:21:28;;;;;;;;;;;;;;;10.86;100.00;98701.34;5021896;28;20214;-62
2022/10/24 01:23:53;;;;;;;;;;;;;;;10.86;100.00;98697.03;5023790;28;19975;-63
2022/10/24 01:26:51;;;;;;;;;;;;;;;10.91;100.00;98687.53;5021667;28;20200;-63
2022/10/24 01:29:21;;;;;;;;;;;;;;;10.91;100.00;98697.78;4998225;28;19941;-63
2022/10/24 01:31:54;;;;;;;;;;;;;;;10.89;100.00;98697.00;5023111;28;19986;-63
2022/10/24 01:34:24;;;;;;;;;;;;;;;10.87;100.00;98703.84;5022969;28;19971;-63
2022/10/24 01:36:58;;;;;;;;;;;;;;;10.91;100.00;98707.19;5022074;28;20069;-63
2022/10/24 01:39:27;;;;;;;;;;;;;;;10.92;100.00;98702.06;5022052;28;20046;-63
2022/10/24 01:41:55;;;;;;;;;;;;;;;10.97;100.00;98700.25;5022486;28;19935;-63
2022/10/24 01:44:32;;;;;;;;;;;;;;;10.97;100.00;98702.81;5022077;28;19940;-63
2022/10/24 01:47:00;;;;;;;;;;;;;;;10.98;100.00;98704.50;5022801;28;20408;-63
2022/10/24 01:49:29;;;;;;;;;;;;;;;10.93;100.00;98702.91;5022983;28;19925;-63
2022/10/24 01:51:56;;;;;;;;;;;;;;;10.91;100.00;98709.75;5022330;28;19933;-62
2022/10/24 01:54:22;;;;;;;;;;;;;;;11.00;100.00;98715.56;5021040;28;19976;-62
2022/10/24 01:56:47;;;;;;;;;;;;;;;11.02;100.00;98717.28;5021715;28;20042;-62
2022/10/24 01:59:28;;;;;;;;;;;;;;;11.09;100.00;98719.69;5021351;28;20558;-61
2022/10/24 02:02:12;;;;;;;;;;;;;;;11.03;100.00;98726.66;5021044;28;19972;-62
2022/10/24 02:04:39;;;;;;;;;;;;;;;11.06;100.00;98734.28;5021120;28;19925;-62
2022/10/24 02:07:07;;;;;;;;;;;;;;;11.06;100.00;98737.72;5020974;28;20011;-62
2022/10/24 02:09:34;;;;;;;;;;;;;;;11.01;100.00;98744.63;5021142;28;19955;-63
2022/10/24 02:11:59;;;;;;;;;;;;;;;10.88;100.00;98740.59;5022843;28;19966;-63
2022/10/24 02:14:33;;;;;;;;;;;;;;;10.82;100.00;98751.00;5019600;28;20453;-63
2022/10/24 02:17:00;;;;;;;;;;;;;;;10.83;100.00;98776.59;5020980;28;19948;-61
2022/10/24 02:19:26;;;;;;;;;;;;;;;10.82;100.00;98802.28;5022001;28;19935;-62
2022/10/24 02:21:58;;;;;;;;;;;;;;;10.81;100.00;98828.81;5021599;28;20295;-62
2022/10/24 02:24:30;;;;;;;;;;;;;;;10.78;100.00;98805.75;5019741;28;20300;-62
2022/10/24 02:27:16;;;;;;;;;;;;;;;10.87;100.00;98832.09;5020698;28;19925;-62
2022/10/24 02:29:43;;;;;;;;;;;;;;;10.88;100.00;98838.91;5020358;28;20228;-62
2022/10/24 02:32:12;;;;;;;;;;;;;;;10.84;100.00;98816.75;5021499;28;19925;-62
2022/10/24 02:34:39;;;;;;;;;;;;;;;10.85;100.00;98800.50;5021109;28;19964;-63
2022/10/24 02:37:05;;;;;;;;;;;;;;;10.84;100.00;98786.00;5021611;28;19925;-62
2022/10/24 02:39:32;;;;;;;;;;;;;;;10.81;100.00;98803.16;5017976;28;20696;-62
2022/10/24 02:41:58;;;;;;;;;;;;;;;10.79;100.00;98799.75;5017127;28;20157;-63
2022/10/24 02:44:24;;;;;;;;;;;;;;;10.84;100.00;98803.94;5020563;28;20427;-61
2022/10/24 02:46:51;;;;;;;;;;;;;;;10.81;100.00;98795.47;5020407;28;19971;-61
2022/10/24 02:49:17;;;;;;;;;;;;;;;10.87;100.00;98803.88;5015872;28;19972;-62
2022/10/24 02:51:43;;;;;;;;;;;;;;;10.86;100.00;98809.06;5015533;28;19982;-61
2022/10/24 02:54:10;;;;;;;;;;;;;;;10.84;100.00;98801.38;5015909;28;19925;-61
2022/10/24 02:56:38;;;;;;;;;;;;;;;10.79;100.00;98786.94;5017973;28;19958;-61
2022/10/24 02:59:04;;;;;;;;;;;;;;;10.78;100.00;98801.47;5018333;28;19931;-59
2022/10/24 03:01:29;;;;;;;;;;;;;;;10.91;100.00;98802.09;5020762;28;19963;-61
2022/10/24 03:03:55;;;;;;;;;;;;;;;11.09;100.00;98806.91;5014405;28;19980;-61
2022/10/24 03:06:20;;;;;;;;;;;;;;;11.18;100.00;98811.03;5016957;28;19953;-60
2022/10/24 03:08:46;;;;;;;;;;;;;;;11.28;100.00;98803.16;5017354;28;20488;-62
2022/10/24 03:11:11;;;;;;;;;;;;;;;11.23;100.00;98802.38;5011717;28;20050;-62
2022/10/24 03:13:37;;;;;;;;;;;;;;;11.31;100.00;98792.81;5020616;28;20657;-66
2022/10/24 03:16:03;;;;;;;;;;;;;;;11.29;100.00;98794.53;5020427;28;19971;-64
2022/10/24 03:18:29;;;;;;;;;;;;;;;11.30;100.00;98795.41;5019874;28;20021;-62
2022/10/24 03:20:54;;;;;;;;;;;;;;;11.25;100.00;98781.81;5018280;28;20407;-62
2022/10/24 03:23:20;;;;;;;;;;;;;;;11.22;100.00;98784.44;5021140;28;19957;-63
2022/10/24 03:25:46;;;;;;;;;;;;;;;11.21;100.00;98793.00;5021276;28;19944;-63
2022/10/24 03:28:11;;;;;;;;;;;;;;;11.14;100.00;98799.13;5017058;28;19929;-63
2022/10/24 03:30:37;;;;;;;;;;;;;;;11.16;100.00;98787.97;5016711;28;19932;-63
2022/10/24 03:33:02;;;;;;;;;;;;;;;11.36;100.00;98795.28;5016343;28;19928;-63
2022/10/24 03:35:28;;;;;;;;;;;;;;;11.04;100.00;98801.00;5018567;28;19929;-63
2022/10/24 03:37:53;;;;;;;;;;;;;;;10.89;100.00;98796.16;5020829;28;20041;-63
2022/10/24 03:40:19;;;;;;;;;;;;;;;10.74;100.00;98796.41;5020270;28;20011;-64
2022/10/24 03:42:44;;;;;;;;;;;;;;;10.57;100.00;98801.81;5017390;28;19959;-63
2022/10/24 03:45:09;;;;;;;;;;;;;;;10.54;100.00;98804.44;5015836;28;19964;-62
2022/10/24 03:47:35;;;;;;;;;;;;;;;10.53;100.00;98803.59;5015485;28;19960;-63
2022/10/24 03:50:00;;;;;;;;;;;;;;;10.49;100.00;98812.22;5019468;28;20011;-62
2022/10/24 03:52:26;;;;;;;;;;;;;;;10.37;100.00;98809.84;5016757;28;19929;-64
2022/10/24 03:54:51;;;;;;;;;;;;;;;10.36;100.00;98813.25;5019603;28;19929;-64
2022/10/24 03:57:17;;;;;;;;;;;;;;;10.43;100.00;98816.59;5017237;28;19932;-63
2022/10/24 03:59:42;;;;;;;;;;;;;;;10.26;100.00;98814.28;5017648;28;19929;-64
2022/10/24 04:02:08;;;;;;;;;;;;;;;10.14;100.00;98824.69;5014071;28;20397;-64
2022/10/24 04:04:33;;;;;;;;;;;;;;;10.02;100.00;98819.72;5016467;28;20422;-64
2022/10/24 04:06:59;;;;;;;;;;;;;;;10.00;100.00;98824.03;5020176;28;20023;-63
2022/10/24 04:09:25;;;;;;;;;;;;;;;9.98;100.00;98826.59;5018632;28;19925;-64
2022/10/24 04:11:52;;;;;;;;;;;;;;;10.02;100.00;98828.25;5020780;28;19959;-65
2022/10/24 04:14:18;;;;;;;;;;;;;;;9.94;100.00;98830.06;5017451;28;20735;-64
2022/10/24 04:16:43;;;;;;;;;;;;;;;9.88;100.00;98835.28;5017580;28;20029;-64
2022/10/24 04:19:09;;;;;;;;;;;;;;;9.83;100.00;98836.19;5021790;28;20287;-64
2022/10/24 04:21:35;;;;;;;;;;;;;;;9.77;100.00;98834.56;5019376;28;20399;-64
2022/10/24 04:24:00;;;;;;;;;;;;;;;9.66;100.00;98830.44;5022989;28;19925;-69
2022/10/24 04:26:26;;;;;;;;;;;;;;;9.59;100.00;98833.06;5020806;28;19985;-64
2022/10/24 04:28:51;;;;;;;;;;;;;;;9.52;100.00;98840.84;5021531;28;19929;-63
2022/10/24 04:31:17;;;;;;;;;;;;;;;9.44;100.00;98838.38;5025328;28;19929;-63
2022/10/24 04:33:42;;;;;;;;;;;;;;;9.37;100.00;98843.56;5025748;28;19929;-63
2022/10/24 04:36:08;;;;;;;;;;;;;;;9.34;100.00;98844.44;5023958;28;20414;-64
2022/10/24 04:38:33;;;;;;;;;;;;;;;9.35;100.00;98848.69;5025106;28;19991;-65
2022/10/24 04:40:59;;;;;;;;;;;;;;;9.32;100.00;98851.31;5023636;28;19924;-66
2022/10/24 04:43:25;;;;;;;;;;;;;;;9.29;100.00;98848.78;5020468;28;20044;-67
2022/10/24 04:45:50;;;;;;;;;;;;;;;9.25;100.00;98843.72;5019594;28;19956;-67
2022/10/24 04:48:16;;;;;;;;;;;;;;;9.22;100.00;98836.03;5018801;28;19962;-69
2022/10/24 04:50:42;;;;;;;;;;;;;;;9.15;100.00;98827.59;5021460;28;20019;-69
2022/10/24 04:53:11;;;;;;;;;;;;;;;9.17;100.00;98839.50;5009591;28;20296;-67
2022/10/24 04:55:36;;;;;;;;;;;;;;;9.13;100.00;98834.44;5014887;28;19929;-69
2022/10/24 04:58:02;;;;;;;;;;;;;;;9.16;100.00;98852.31;5019488;28;19925;-70
2022/10/24 05:00:28;;;;;;;;;;;;;;;9.15;100.00;98850.63;5019872;28;20442;-69
2022/10/24 05:02:53;;;;;;;;;;;;;;;9.14;100.00;98849.78;5023176;28;20501;-70
2022/10/24 05:05:19;;;;;;;;;;;;;;;9.08;100.00;98851.56;5024130;28;19959;-69
2022/10/24 05:07:45;;;;;;;;;;;;;;;9.05;100.00;98852.41;5019941;28;20027;-71
2022/10/24 05:10:11;;;;;;;;;;;;;;;9.02;100.00;98849.91;5018458;28;19929;-63
2022/10/24 05:12:36;;;;;;;;;;;;;;;9.00;100.00;98859.28;5019224;28;19936;-62
2022/10/24 05:15:02;;;;;;;;;;;;;;;9.01;100.00;98863.53;5022011;28;20332;-70
2022/10/24 05:17:28;;;;;;;;;;;;;;;9.12;100.00;98859.16;5019682;28;20447;-70
2022/10/24 05:19:53;;;;;;;;;;;;;;;9.08;100.00;98865.16;5018517;28;20028;-69
2022/10/24 05:22:19;;;;;;;;;;;;;;;9.02;100.00;98854.16;5018938;28;20269;-69
2022/10/24 05:24:44;;;;;;;;;;;;;;;8.98;100.00;98855.91;5017273;28;19933;-69
2022/10/24 05:27:10;;;;;;;;;;;;;;;8.94;100.00;98858.50;5015300;28;19944;-68
2022/10/24 05:29:35;;;;;;;;;;;;;;;8.94;100.00;98849.13;5018976;28;20046;-68
2022/10/24 05:32:01;;;;;;;;;;;;;;;8.95;100.00;98845.72;5021182;28;20637;-69
2022/10/24 05:34:26;;;;;;;;;;;;;;;8.99;100.00;98857.59;5022486;28;20043;-72
2022/10/24 05:36:52;;;;;;;;;;;;;;;9.02;100.00;98859.28;5017692;28;19978;-70
2022/10/24 05:39:17;;;;;;;;;;;;;;;9.00;100.00;98879.72;5033649;28;19991;-66
2022/10/24 05:41:43;;;;;;;;;;;;;;;8.99;100.00;98880.63;5018779;28;19937;-62
2022/10/24 05:44:10;;;;;;;;;;;;;;;9.01;100.00;98876.31;5018509;28;20051;-62
2022/10/24 05:46:35;;;;;;;;;;;;;;;9.03;100.00;98877.16;5020269;28;19933;-62
2022/10/24 05:49:02;;;;;;;;;;;;;;;9.04;100.00;98878.00;5016259;28;19936;-62
2022/10/24 05:51:27;;;;;;;;;;;;;;;9.04;100.00;98885.66;5017439;28;20299;-63
2022/10/24 05:53:53;;;;;;;;;;;;;;;9.03;100.00;98881.44;5020448;28;19933;-64
2022/10/24 05:56:18;;;;;;;;;;;;;;;9.04;100.00;98889.06;5017689;28;19930;-62
2022/10/24 05:58:44;;;;;;;;;;;;;;;9.06;100.00;98896.75;5020145;28;19935;-68
2022/10/24 06:01:09;;;;;;;;;;;;;;;9.03;100.00;98887.41;5021565;28;20012;-67
2022/10/24 06:03:34;;;;;;;;;;;;;;;9.05;100.00;98893.34;5018349;28;20682;-66
2022/10/24 06:06:04;;;;;;;;;;;;;;;9.00;100.00;98889.97;5017341;28;19939;-66
2022/10/24 06:08:30;;;;;;;;;;;;;;;9.03;100.00;98896.78;5018222;28;20006;-65
2022/10/24 06:10:55;;;;;;;;;;;;;;;9.05;100.00;98895.88;5017891;28;20097;-66
2022/10/24 06:13:21;;;;;;;;;;;;;;;9.02;100.00;98897.63;5021997;28;19973;-68
2022/10/24 06:15:46;;;;;;;;;;;;;;;9.07;100.00;98895.88;5022136;28;20046;-64
2022/10/24 06:18:12;;;;;;;;;;;;;;;9.11;100.00;98892.44;5022345;28;19940;-67
2022/10/24 06:20:37;;;;;;;;;;;;;;;9.11;100.00;98902.66;5020281;28;19929;-68
2022/10/24 06:23:03;;;;;;;;;;;;;;;9.14;100.00;98911.16;5020516;28;19940;-66
2022/10/24 06:25:28;;;;;;;;;;;;;;;9.15;100.00;98912.88;5019645;28;19971;-70
2022/10/24 06:27:54;;;;;;;;;;;;;;;9.21;100.00;98918.78;5022049;28;20512;-67
2022/10/24 06:30:19;;;;;;;;;;;;;;;9.25;100.00;98917.91;5020859;28;20290;-67
2022/10/24 06:32:45;;;;;;;;;;;;;;;9.29;100.00;98933.22;5018854;28;19976;-66
2022/10/24 06:35:12;;;;;;;;;;;;;;;9.36;100.00;98927.16;5015713;28;19982;-68
2022/10/24 06:37:38;;;;;;;;;;;;;;;9.48;100.00;98927.03;5017511;28;20304;-68
2022/10/24 06:40:04;;;;;;;;;;;;;;;9.59;100.00;98920.09;5052080;28;19929;-68
2022/10/24 06:42:29;;;;;;;;;;;;;;;9.71;100.00;98929.38;5021530;28;20038;-67
2022/10/24 06:44:55;;;;;;;;;;;;;;;9.83;100.00;98934.34;5018876;28;20388;-68
2022/10/24 06:47:21;;;;;;;;;;;;;;;9.97;100.00;98936.78;5021075;28;19974;-66
2022/10/24 06:49:46;;;;;;;;;;;;;;;10.08;100.00;98929.78;5015631;28;20014;-70
2022/10/24 06:52:11;;;;;;;;;;;;;;;10.21;100.00;98935.63;5016355;28;19951;-70
2022/10/24 06:54:37;;;;;;;;;;;;;;;10.31;100.00;98932.91;5018611;28;19951;-69
2022/10/24 06:57:03;;;;;;;;;;;;;;;10.41;100.00;98934.50;5019682;28;20015;-68
2022/10/24 06:59:29;;;;;;;;;;;;;;;10.53;100.00;98943.75;5021390;28;19921;-69
2022/10/24 07:01:55;;;;;;;;;;;;;;;10.78;100.00;98947.66;5018260;28;19929;-68
2022/10/24 07:04:20;;;;;;;;;;;;;;;11.02;100.00;98937.91;5016460;28;20370;-69
2022/10/24 07:06:46;;;;;;;;;;;;;;;11.21;100.00;98941.84;5016696;28;19968;-69
2022/10/24 07:09:12;;;;;;;;;;;;;;;11.43;100.00;98935.47;5020694;28;19925;-70
2022/10/24 07:11:37;;;;;;;;;;;;;;;11.60;100.00;98928.31;5032627;28;19925;-70
2022/10/24 07:14:03;;;;;;;;;;;;;;;11.85;100.00;98936.44;5016530;28;19959;-69
2022/10/24 07:16:29;;;;;;;;;;;;;;;11.96;100.00;98936.25;5019442;28;19988;-69
2022/10/24 07:18:54;;;;;;;;;;;;;;;12.20;100.00;98936.59;5013198;28;20392;-68
2022/10/24 07:21:21;;;;;;;;;;;;;;;12.29;100.00;98935.56;5016227;28;19991;-67
2022/10/24 07:23:48;;;;;;;;;;;;;;;12.45;100.00;98930.94;5020365;28;19937;-64
2022/10/24 07:26:15;;;;;;;;;;;;;;;12.56;100.00;98929.81;5019860;28;20039;-63
2022/10/24 07:28:41;;;;;;;;;;;;;;;12.66;100.00;98931.31;5019230;28;19963;-63
2022/10/24 07:31:08;;;;;;;;;;;;;;;12.90;100.00;98923.91;5016090;28;20046;-65
2022/10/24 07:33:35;;;;;;;;;;;;;;;13.08;100.00;98928.59;5017323;28;19955;-65
2022/10/24 07:36:00;;;;;;;;;;;;;;;13.33;100.00;98932.28;5020232;28;20210;-65
2022/10/24 07:38:26;;;;;;;;;;;;;;;13.57;100.00;98921.38;5020654;28;19932;-65
2022/10/24 07:40:51;;;;;;;;;;;;;;;13.71;100.00;98916.69;5017500;28;20387;-64
2022/10/24 07:43:17;;;;;;;;;;;;;;;13.80;100.00;98912.16;5013921;28;19979;-64
2022/10/24 07:45:42;;;;;;;;;;;;;;;13.60;100.00;98917.88;5017305;28;19980;-64
2022/10/24 07:48:08;;;;;;;;;;;;;;;13.53;100.00;98924.94;5016378;28;20481;-66
2022/10/24 07:50:40;;;;;;;;;;;;;;;13.71;100.00;98932.16;5019429;28;20134;-65
2022/10/24 07:53:05;;;;;;;;;;;;;;;13.77;100.00;98933.72;5023200;28;19932;-65
2022/10/24 07:55:30;;;;;;;;;;;;;;;13.73;100.00;98940.69;5026857;28;20400;-63
2022/10/24 07:57:56;;;;;;;;;;;;;;;13.76;100.00;98942.34;5023309;28;20383;-72
2022/10/24 08:00:23;;;;;;;;;;;;;;;13.94;100.00;98938.41;5022885;28;20650;-66
2022/10/24 08:02:49;;;;;;;;;;;;;;;14.02;100.00;98939.06;5018843;28;20360;-66
2022/10/24 08:05:15;;;;;;;;;;;;;;;14.18;100.00;98933.41;5020732;28;19960;-64
2022/10/24 08:07:40;;;;;;;;;;;;;;;14.33;100.00;98931.28;5020317;28;19925;-66
2022/10/24 08:10:09;;;;;;;;;;;;;;;14.51;100.00;98920.47;5020118;28;19987;-66
2022/10/24 08:12:34;;;;;;;;;;;;;;;14.60;100.00;98926.19;5038341;28;19929;-66
2022/10/24 08:15:00;;;;;;;;;;;;;;;14.63;100.00;98925.25;5023852;28;20025;-65
2022/10/24 08:17:26;;;;;;;;;;;;;;;14.74;100.00;98914.59;5024449;28;19969;-65
2022/10/24 08:19:51;;;;;;;;;;;;;;;14.80;100.00;98912.66;5020058;28;19956;-65
2022/10/24 08:22:17;;;;;;;;;;;;;;;14.82;100.00;98905.72;5018553;28;19929;-65
2022/10/24 08:24:43;;;;;;;;;;;;;;;14.96;100.00;98906.13;5019485;28;20134;-65
2022/10/24 08:27:09;;;;;;;;;;;;;;;15.15;100.00;98908.13;5019674;28;19978;-66
2022/10/24 08:29:34;;;;;;;;;;;;;;;15.28;100.00;98899.88;5020603;28;19937;-65
2022/10/24 08:32:00;;;;;;;;;;;;;;;15.45;100.00;98907.06;5019541;28;19940;-66
2022/10/24 08:34:26;;;;;;;;;;;;;;;15.51;100.00;98897.41;5023642;28;19955;-65
2022/10/24 08:36:51;;;;;;;;;;;;;;;15.56;100.00;98904.16;5024294;28;19998;-66
2022/10/24 08:39:17;;;;;;;;;;;;;;;15.63;100.00;98900.44;5023355;28;20042;-65
2022/10/24 08:41:49;;;;;;;;;;;;;;;15.82;100.00;98892.00;5023224;28;20387;-66
2022/10/24 08:44:21;;;;;;;;;;;;;;;15.74;100.00;98903.53;5037160;28;20028;-65
2022/10/24 08:47:06;;;;;;;;;;;;;;;15.78;100.00;98900.78;5023096;28;19982;-65
2022/10/24 08:49:37;;;;;;;;;;;;;;;15.91;100.00;98883.09;5017937;28;19936;-66
2022/10/24 08:52:10;;;;;;;;;;;;;;;16.01;100.00;98874.06;5020430;28;19979;-66
2022/10/24 08:54:39;;;;;;;;;;;;;;;15.92;100.00;98887.31;5019131;28;20036;-66
2022/10/24 08:57:05;;;;;;;;;;;;;;;16.05;100.00;98880.81;5019561;28;20425;-65
2022/10/24 08:59:32;;;;;;;;;;;;;;;16.06;100.00;98876.47;5019544;28;19943;-66
2022/10/24 09:02:00;;;;;;;;;;;;;;;16.29;100.00;98879.91;5018616;28;19945;-67
2022/10/24 09:04:30;;;;;;;;;;;;;;;16.39;100.00;98870.03;5021001;28;20001;-66
2022/10/24 09:06:55;;;;;;;;;;;;;;;16.53;100.00;98878.13;5022486;28;20325;-66
2022/10/24 09:09:27;;;;;;;;;;;;;;;16.33;100.00;98872.88;5020938;28;19929;-66
2022/10/24 09:11:58;;;;;;;;;;;;;;;16.37;100.00;98867.53;5021192;28;19949;-66
2022/10/24 09:14:31;;;;;;;;;;;;;;;16.66;100.00;98874.19;5023268;28;20033;-65
2022/10/24 09:17:01;;;;;;;;;;;;;;;16.78;100.00;98875.44;5023397;28;19962;-65
2022/10/24 09:19:29;;;;;;;;;;;;;;;16.55;100.00;98872.88;5018972;28;19933;-65
2022/10/24 09:21:56;;;;;;;;;;;;;;;16.61;100.00;98876.09;5017255;28;20431;-66
2022/10/24 09:24:21;;;;;;;;;;;;;;;16.60;100.00;98869.22;5022196;28;19986;-59
2022/10/24 09:26:47;;;;;;;;;;;;;;;16.47;100.00;98870.56;5023210;28;19929;-59
2022/10/24 09:29:13;;;;;;;;;;;;;;;16.35;100.00;98863.28;5021789;28;20762;-59
2022/10/24 09:31:39;;;;;;;;;;;;;;;16.23;100.00;98863.75;5022841;28;20015;-60
2022/10/24 09:34:05;;;;;;;;;;;;;;;16.06;100.00;98868.72;5022344;28;20313;-59
2022/10/24 09:36:31;;;;;;;;;;;;;;;16.05;100.00;98861.84;5021562;28;19929;-59
2022/10/24 09:39:08;;;;;;;;;;;;;;;15.85;100.00;98866.03;5022584;28;19970;-59
2022/10/24 09:41:35;;;;;;;;;;;;;;;15.72;100.00;98861.34;5018346;28;20259;-61
2022/10/24 09:44:00;;;;;;;;;;;;;;;15.73;100.00;98868.22;5018488;28;19929;-59
2022/10/24 09:46:38;;;;;;;;;;;;;;;15.79;100.00;98873.16;5016759;28;19962;-60
2022/10/24 09:49:03;;;;;;;;;;;;;;;15.97;100.00;98873.34;5016941;28;20325;-60
2022/10/24 09:51:34;;;;;;;;;;;;;;;16.15;100.00;98853.72;5018874;28;19929;-60
2022/10/24 09:54:03;;;;;;;;;;;;;;;16.17;100.00;98846.72;5016314;28;20360;-60
2022/10/24 09:56:33;;;;;;;;;;;;;;;16.04;100.00;98848.06;5016808;28;19932;-61
2022/10/24 09:59:15;;;;;;;;;;;;;;;16.27;100.00;98848.06;5019204;28;19924;-59
2022/10/24 10:01:41;;;;;;;;;;;;;;;16.50;100.00;98854.94;5017693;28;19925;-60
2022/10/24 10:04:13;;;;;;;;;;;;;;;16.73;100.00;98846.28;5021785;28;19932;-60
2022/10/24 10:06:43;;;;;;;;;;;;;;;16.90;100.00;98842.09;5021179;28;19925;-60
2022/10/24 10:09:11;;;;;;;;;;;;;;;16.95;100.00;98846.25;5017706;28;19924;-60
2022/10/24 10:11:36;;;;;;;;;;;;;;;17.15;100.00;98839.34;5017703;28;19953;-59
2022/10/24 10:14:02;;;;;;;;;;;;;;;17.38;100.00;98828.00;5017065;28;19987;-58
2022/10/24 10:16:32;;;;;;;;;;;;;;;17.75;100.00;98824.66;5017670;28;19999;-59
2022/10/24 10:19:04;;;;;;;;;;;;;;;17.91;100.00;98822.22;5021276;28;19950;-58
2022/10/24 10:21:49;;;;;;;;;;;;;;;18.26;100.00;98819.66;5017010;28;19996;-60
2022/10/24 10:24:34;;;;;;;;;;;;;;;18.51;100.00;98831.47;5016447;28;20576;-61
2022/10/24 10:26:59;;;;;;;;;;;;;;;18.58;100.00;98830.31;5017600;28;20417;-59
2022/10/24 10:29:25;;;;;;;;;;;;;;;18.55;100.00;98817.47;5018520;28;19948;-59
2022/10/24 10:32:11;;;;;;;;;;;;;;;18.66;100.00;98810.84;5020697;28;19950;-59
2022/10/24 10:34:48;;;;;;;;;;;;;;;18.73;100.00;98794.94;5019893;28;20002;-59
2022/10/24 10:37:23;;;;;;;;;;;;;;;18.79;100.00;98805.06;5018498;28;20119;-59
2022/10/24 10:39:48;;;;;;;;;;;;;;;18.77;100.00;98796.47;5017128;28;19947;-59
2022/10/24 10:42:20;;;;;;;;;;;;;;;18.76;100.00;98795.63;5018338;28;20007;-59
2022/10/24 10:45:00;;;;;;;;;;;;;;;18.91;100.00;98796.66;5017349;28;20475;-59
2022/10/24 10:47:45;;;;;;;;;;;;;;;18.98;100.00;98800.59;5019659;28;19932;-59
2022/10/24 10:50:35;;;;;;;;;;;;;;;18.74;100.00;98796.66;5021216;28;19936;-59
2022/10/24 10:53:10;;;;;;;;;;;;;;;18.77;100.00;98801.69;5016700;28;20547;-60
2022/10/24 10:55:46;;;;;;;;;;;;;;;18.63;100.00;98802.34;5018632;28;20134;-60
2022/10/24 10:58:12;;;;;;;;;;;;;;;18.67;100.00;98796.94;5018580;28;19947;-59
2022/10/24 11:00:50;;;;;;;;;;;;;;;18.73;100.00;98792.34;5019149;28;20573;-60
2022/10/24 11:03:22;;;;;;;;;;;;;;;18.79;100.00;98800.69;5019387;28;19925;-59
2022/10/24 11:06:06;;;;;;;;;;;;;;;18.76;100.00;98789.59;5018631;28;19939;-58
2022/10/24 11:08:31;;;;;;;;;;;;;;;18.86;100.00;98785.63;5017004;28;19935;-59
2022/10/24 11:11:02;;;;;;;;;;;;;;;19.04;100.00;98795.97;5014454;28;19934;-58
2022/10/24 11:13:42;;;;;;;;;;;;;;;19.20;100.00;98783.00;5013235;28;19925;-58
2022/10/24 11:16:13;;;;;;;;;;;;;;;18.98;100.00;98770.28;5014657;28;19944;-58
2022/10/24 11:18:41;;;;;;;;;;;;;;;19.01;100.00;98770.09;5014593;28;19932;-58
2022/10/24 11:21:08;;;;;;;;;;;;;;;19.15;100.00;98762.47;5019203;28;20437;-58
2022/10/24 11:23:43;;;;;;;;;;;;;;;19.11;100.00;98757.50;5017913;28;19961;-59
2022/10/24 11:26:27;;;;;;;;;;;;;;;19.16;100.00;98751.16;5014975;28;19929;-59
2022/10/24 11:28:58;;;;;;;;;;;;;;;19.17;100.00;98755.44;5004526;28;19936;-59
2022/10/24 11:31:36;;;;;;;;;;;;;;;18.95;100.00;98747.06;5024987;28;19963;-58
2022/10/24 11:34:05;;;;;;;;;;;;;;;19.04;100.00;98741.38;5024709;28;20012;-60
2022/10/24 11:36:35;;;;;;;;;;;;;;;19.02;100.00;98752.75;5025333;28;19925;-61
2022/10/24 11:39:05;;;;;;;;;;;;;;;19.18;100.00;98738.03;5025215;28;19925;-60
2022/10/24 11:41:34;;;;;;;;;;;;;;;19.41;100.00;98732.50;5025498;28;20575;-59
2022/10/24 11:44:14;;;;;;;;;;;;;;;19.34;100.00;98733.75;5020761;28;19925;-58
2022/10/24 11:46:41;;;;;;;;;;;;;;;19.43;100.00;98737.66;5020212;28;20456;-58
2022/10/24 11:49:17;;;;;;;;;;;;;;;19.46;100.00;98733.13;5020603;28;19925;-59
2022/10/24 11:51:46;;;;;;;;;;;;;;;19.69;100.00;98728.47;5025504;28;19929;-58
2022/10/24 11:54:18;;;;;;;;;;;;;;;19.88;100.00;98723.91;5021414;28;19925;-60
2022/10/24 11:56:56;;;;;;;;;;;;;;;19.97;100.00;98721.66;5019734;28;19937;-58
2022/10/24 11:59:24;;;;;;;;;;;;;;;19.90;100.00;98715.09;5023816;28;19925;-59
2022/10/24 12:01:59;;;;;;;;;;;;;;;19.89;100.00;98712.59;5024316;28;19937;-59
2022/10/24 12:04:37;;;;;;;;;;;;;;;19.87;100.00;98715.28;5023800;28;19935;-59
2022/10/24 12:07:28;;;;;;;;;;;;;;;19.83;100.00;98700.75;5022718;28;19964;-60
2022/10/24 12:10:12;;;;;;;;;;;;;;;19.80;100.00;98703.53;5019243;28;19959;-58
2022/10/24 12:13:07;;;;;;;;;;;;;;;19.61;100.00;98692.44;5022756;28;20557;-60
2022/10/24 12:15:51;;;;;;;;;;;;;;;19.80;100.00;98695.72;5023919;28;20337;-59
2022/10/24 12:18:26;;;;;;;;;;;;;;;19.69;100.00;98679.84;5023299;28;20025;-59
2022/10/24 12:20:53;;;;;;;;;;;;;;;19.71;100.00;98662.41;5020979;28;19940;-58
2022/10/24 12:23:26;;;;;;;;;;;;;;;19.55;100.00;98667.63;5019358;28;20623;-60
2022/10/24 12:26:17;;;;;;;;;;;;;;;19.52;100.00;98664.31;5022597;28;19925;-59
2022/10/24 12:28:52;;;;;;;;;;;;;;;19.47;100.00;98661.16;5023994;28;20414;-59
2022/10/24 12:31:20;;;;;;;;;;;;;;;19.37;100.00;98658.19;5023942;28;19950;-60
2022/10/24 12:34:05;;;;;;;;;;;;;;;19.53;100.00;98663.41;5021479;28;19925;-59
2022/10/24 12:36:50;;;;;;;;;;;;;;;19.43;100.00;98657.06;5018780;28;20459;-60
2022/10/24 12:39:27;;;;;;;;;;;;;;;19.52;100.00;98651.31;5016723;28;19939;-62
2022/10/24 12:41:54;;;;;;;;;;;;;;;19.43;100.00;98650.09;5021314;28;19941;-60
2022/10/24 12:44:33;;;;;;;;;;;;;;;19.32;100.00;98646.34;5021075;28;19999;-61
2022/10/24 12:46:59;;;;;;;;;;;;;;;19.40;100.00;98644.16;5023998;28;19935;-61